Time;durP1;ratioP1;P1;durP2;ratioP2;P2;SDS_P1;SDS_P2;PMS_P1;PMS_P2;Temp;Humidity;BMP_temperature;BMP_pressure;BME280_temperature;BME280_humidity;BME280_pressure;Samples;Min_cycle;Max_cycle;Signal;HPM_P1;HPM_P2
2022/05/10 00:00:15;;;;;;;12.95;10.15;;;;;;;15.63;nan;100348.88;5089747;28;20059;-80
2022/05/10 00:02:42;;;;;;;10.98;9.77;;;;;;;15.67;nan;100344.91;5091309;28;20115;-81
2022/05/10 00:05:08;;;;;;;11.65;10.55;;;;;;;15.71;nan;100338.28;5090893;28;20024;-81
2022/05/10 00:07:36;;;;;;;12.07;10.90;;;;;;;15.77;nan;100339.50;5090855;28;20032;-81
2022/05/10 00:10:05;;;;;;;12.15;10.93;;;;;;;15.80;nan;100333.84;5085562;28;20460;-81
2022/05/10 00:12:31;;;;;;;11.77;10.45;;;;;;;15.86;nan;100339.38;5090391;28;20036;-81
2022/05/10 00:14:56;;;;;;;14.02;10.02;;;;;;;15.88;nan;100334.75;5090937;28;20039;-81
2022/05/10 00:17:28;;;;;;;10.90;9.82;;;;;;;15.92;nan;100329.91;5090420;28;20488;-81
2022/05/10 00:19:55;;;;;;;11.07;9.68;;;;;;;15.95;nan;100327.78;5089625;28;20039;-81
2022/05/10 00:22:20;;;;;;;13.00;10.27;;;;;;;15.93;nan;100340.41;5090416;28;20036;-81
2022/05/10 00:24:46;;;;;;;11.35;10.25;;;;;;;15.92;nan;100328.09;5090717;28;20423;-82
2022/05/10 00:27:11;;;;;;;11.93;10.05;;;;;;;15.84;nan;100336.06;5090486;28;20034;-81
2022/05/10 00:29:37;;;;;;;11.32;10.30;;;;;;;15.86;nan;100334.06;5090589;28;20036;-82
2022/05/10 00:32:04;;;;;;;15.07;11.60;;;;;;;15.76;nan;100327.19;5090733;28;20571;-80
2022/05/10 00:34:30;;;;;;;11.43;10.23;;;;;;;15.84;nan;100330.72;5088955;28;20116;-81
2022/05/10 00:36:56;;;;;;;11.43;10.05;;;;;;;15.83;nan;100339.72;5090371;28;20036;-80
2022/05/10 00:39:22;;;;;;;10.10;9.20;;;;;;;15.83;nan;100337.03;5090168;28;20020;-81
2022/05/10 00:41:58;;;;;;;15.63;10.85;;;;;;;15.38;nan;100336.34;5090238;28;20082;-81
2022/05/10 00:44:30;;;;;;;10.13;9.05;;;;;;;15.45;nan;100330.25;5089977;28;20040;-81
2022/05/10 00:47:06;;;;;;;10.68;9.52;;;;;;;15.29;nan;100339.94;5090395;28;20048;-81
2022/05/10 00:50:01;;;;;;;13.52;10.00;;;;;;;14.95;nan;100338.00;5090123;28;20086;-81
2022/05/10 00:52:50;;;;;;;10.80;9.68;;;;;;;14.75;nan;100337.28;5087301;28;20414;-81
2022/05/10 00:55:23;;;;;;;11.63;9.80;;;;;;;14.82;nan;100337.53;5088167;28;20032;-81
2022/05/10 00:57:52;;;;;;;13.40;10.13;;;;;;;14.67;nan;100336.34;5088858;28;20024;-80
2022/05/10 01:00:21;;;;;;;11.73;10.60;;;;;;;14.49;nan;100341.63;5088118;28;20034;-80
2022/05/10 01:02:47;;;;;;;12.13;10.98;;;;;;;14.53;nan;100342.19;5087024;28;20036;-80
2022/05/10 01:05:18;;;;;;;17.38;10.85;;;;;;;14.43;nan;100338.78;5089412;28;20039;-81
2022/05/10 01:07:52;;;;;;;15.40;11.10;;;;;;;14.60;nan;100343.28;5090920;28;20115;-81
2022/05/10 01:10:32;;;;;;;14.52;10.52;;;;;;;14.57;nan;100343.56;5090484;28;20066;-80
2022/05/10 01:13:12;;;;;;;12.15;10.80;;;;;;;14.40;nan;100339.03;5090534;28;20044;-80
2022/05/10 01:15:39;;;;;;;13.57;11.13;;;;;;;14.58;nan;100340.75;5087226;28;20111;-80
2022/05/10 01:18:05;;;;;;;11.40;10.40;;;;;;;14.48;nan;100341.81;5090803;28;20102;-80
2022/05/10 01:20:38;;;;;;;12.57;11.30;;;;;;;14.45;nan;100339.44;5089773;28;20123;-80
2022/05/10 01:23:26;;;;;;;16.83;11.30;;;;;;;14.48;nan;100344.47;5086496;28;20388;-81
2022/05/10 01:26:07;;;;;;;13.38;10.30;;;;;;;14.41;nan;100346.88;5089000;28;20031;-81
2022/05/10 01:28:39;;;;;;;11.23;10.23;;;;;;;14.40;nan;100344.34;5085806;28;20052;-81
2022/05/10 01:31:18;;;;;;;13.68;11.48;;;;;;;14.32;nan;100353.84;5082484;28;20090;-81
2022/05/10 01:33:52;;;;;;;14.15;11.27;;;;;;;14.21;nan;100351.41;5087967;28;20483;-81
2022/05/10 01:36:59;;;;;;;16.15;12.05;;;;;;;14.19;nan;100356.03;5089727;28;20024;-81
2022/05/10 01:39:30;;;;;;;18.30;11.85;;;;;;;14.11;nan;100355.94;5088622;28;20110;-81
2022/05/10 01:42:05;;;;;;;14.88;11.23;;;;;;;13.99;nan;100351.78;5088532;28;20032;-81
2022/05/10 01:44:54;;;;;;;12.13;10.93;;;;;;;14.15;nan;100348.50;5089617;28;20111;-80
2022/05/10 01:47:31;;;;;;;13.48;11.20;;;;;;;14.31;nan;100354.84;5087957;28;20089;-80
2022/05/10 01:50:30;;;;;;;10.95;9.95;;;;;;;14.45;nan;100345.59;5090106;28;20529;-80
2022/05/10 01:53:12;;;;;;;11.93;10.57;;;;;;;14.54;nan;100347.38;5087921;28;20119;-80
2022/05/10 01:55:41;;;;;;;12.20;10.98;;;;;;;14.59;nan;100341.59;5089995;28;20031;-80
2022/05/10 01:58:12;;;;;;;11.95;10.13;;;;;;;14.61;nan;100336.97;5093734;28;20043;-80
2022/05/10 02:00:39;;;;;;;11.27;10.13;;;;;;;14.63;nan;100337.66;5092272;28;20052;-81
2022/05/10 02:03:20;;;;;;;11.57;9.88;;;;;;;14.64;nan;100344.63;5093618;28;20064;-81
2022/05/10 02:06:04;;;;;;;11.27;10.15;;;;;;;14.58;nan;100339.91;5091005;28;20035;-81
2022/05/10 02:08:57;;;;;;;12.68;11.07;;;;;;;14.48;nan;100349.78;5093163;28;20417;-80
2022/05/10 02:11:23;;;;;;;11.73;10.15;;;;;;;14.43;nan;100341.44;5091957;28;20040;-80
2022/05/10 02:14:28;;;;;;;10.95;10.00;;;;;;;14.41;nan;100338.06;5101655;28;20035;-80
2022/05/10 02:17:15;;;;;;;11.27;10.07;;;;;;;14.39;nan;100340.03;5070212;28;20040;-81
2022/05/10 02:19:49;;;;;;;12.00;10.73;;;;;;;14.39;nan;100335.56;5069015;28;20173;-81
2022/05/10 02:22:36;;;;;;;10.63;9.73;;;;;;;14.31;nan;100328.28;5070461;28;20044;-81
2022/05/10 02:25:11;;;;;;;12.13;9.57;;;;;;;14.04;nan;100325.63;5070837;28;20098;-81
2022/05/10 02:27:41;;;;;;;10.80;9.60;;;;;;;14.06;nan;100329.00;5070233;28;20167;-81
2022/05/10 02:30:14;;;;;;;17.27;9.98;;;;;;;13.96;nan;100333.47;5070594;28;20032;-81
2022/05/10 02:33:08;;;;;;;16.60;9.85;;;;;;;13.98;nan;100334.19;5070360;28;20044;-81
2022/05/10 02:35:43;;;;;;;11.43;10.27;;;;;;;13.79;nan;100336.88;5062569;28;20120;-81
2022/05/10 02:38:14;;;;;;;11.65;10.38;;;;;;;13.80;nan;100334.09;5062007;28;20147;-81
2022/05/10 02:40:41;;;;;;;13.98;10.70;;;;;;;13.79;nan;100326.28;5061912;28;20132;-81
2022/05/10 02:43:15;;;;;;;12.18;10.85;;;;;;;13.82;nan;100321.53;5061960;28;20037;-81
2022/05/10 02:45:42;;;;;;;12.00;10.75;;;;;;;13.93;nan;100325.81;5059037;28;20037;-81
2022/05/10 02:48:23;;;;;;;11.93;10.57;;;;;;;14.00;nan;100326.91;5061932;28;20029;-81
2022/05/10 02:50:49;;;;;;;14.68;11.02;;;;;;;14.04;nan;100317.69;5075222;28;20064;-81
2022/05/10 02:53:17;;;;;;;15.80;11.63;;;;;;;14.03;nan;100325.78;5092384;28;20119;-81
2022/05/10 02:55:56;;;;;;;11.55;10.43;;;;;;;14.00;nan;100326.91;5092387;28;20429;-81
2022/05/10 02:58:40;;;;;;;11.60;10.25;;;;;;;13.99;nan;100322.59;5092222;28;20028;-81
2022/05/10 03:01:34;;;;;;;11.57;10.50;;;;;;;13.99;nan;100317.28;5088719;28;20039;-82
2022/05/10 03:04:00;;;;;;;12.45;10.02;;;;;;;13.95;nan;100315.91;5091995;28;20032;-80
2022/05/10 03:06:28;;;;;;;12.15;10.75;;;;;;;13.96;nan;100319.41;5090931;28;20050;-81
2022/05/10 03:08:55;;;;;;;12.45;11.20;;;;;;;13.55;nan;100323.31;5092350;28;20085;-81
2022/05/10 03:11:20;;;;;;;14.27;11.10;;;;;;;13.40;nan;100325.53;5091557;28;20103;-81
2022/05/10 03:13:49;;;;;;;11.65;10.45;;;;;;;13.50;nan;100319.25;5092037;28;20111;-81
2022/05/10 03:16:16;;;;;;;12.88;11.38;;;;;;;13.56;nan;100314.34;5091795;28;20483;-81
2022/05/10 03:18:43;;;;;;;12.25;10.88;;;;;;;13.71;nan;100320.88;5092113;28;20028;-81
2022/05/10 03:21:09;;;;;;;11.48;10.38;;;;;;;13.77;nan;100317.66;5091990;28;20317;-82
2022/05/10 03:23:35;;;;;;;12.07;10.65;;;;;;;13.84;nan;100318.75;5091597;28;20085;-81
2022/05/10 03:26:01;;;;;;;11.70;10.52;;;;;;;13.80;nan;100323.50;5091837;28;20039;-82
2022/05/10 03:28:35;;;;;;;14.10;10.30;;;;;;;13.58;nan;100328.31;5087427;28;20040;-81
2022/05/10 03:31:00;;;;;;;14.23;10.98;;;;;;;13.59;nan;100325.53;5091740;28;20081;-81
2022/05/10 03:33:26;;;;;;;14.13;11.30;;;;;;;13.57;nan;100337.22;5091231;28;20082;-81
2022/05/10 03:35:52;;;;;;;13.90;12.45;;;;;;;13.55;nan;100323.31;5091448;28;20468;-81
2022/05/10 03:38:18;;;;;;;15.85;11.90;;;;;;;13.46;nan;100319.69;5091376;28;20071;-81
2022/05/10 03:40:44;;;;;;;13.70;12.40;;;;;;;13.42;nan;100313.84;5091730;28;20445;-81
2022/05/10 03:43:09;;;;;;;14.55;12.38;;;;;;;13.21;nan;100325.56;5091514;28;20107;-81
2022/05/10 03:45:35;;;;;;;15.13;12.98;;;;;;;13.31;nan;100319.28;5090034;28;20503;-81
2022/05/10 03:48:01;;;;;;;13.32;11.95;;;;;;;13.34;nan;100316.34;5091508;28;20059;-81
2022/05/10 03:50:27;;;;;;;13.27;11.98;;;;;;;13.49;nan;100320.22;5091196;28;20051;-81
2022/05/10 03:52:53;;;;;;;12.88;11.57;;;;;;;13.52;nan;100319.94;5090996;28;20481;-81
2022/05/10 03:55:22;;;;;;;17.17;12.57;;;;;;;13.45;nan;100318.84;5091107;28;20400;-81
2022/05/10 03:57:48;;;;;;;13.70;11.63;;;;;;;13.47;nan;100327.50;5089828;28;20031;-82
2022/05/10 04:00:19;;;;;;;13.57;12.10;;;;;;;13.59;nan;100324.69;5090967;28;20044;-81
2022/05/10 04:02:46;;;;;;;13.52;12.23;;;;;;;13.44;nan;100317.16;5091316;28;20095;-81
2022/05/10 04:05:13;;;;;;;16.48;13.38;;;;;;;13.42;nan;100328.91;5091142;28;20162;-81
2022/05/10 04:07:39;;;;;;;14.98;13.57;;;;;;;13.35;nan;100333.94;5090630;28;20096;-81
2022/05/10 04:10:07;;;;;;;19.75;13.57;;;;;;;13.28;nan;100331.97;5091026;28;20498;-81
2022/05/10 04:12:33;;;;;;;14.50;13.10;;;;;;;13.47;nan;100324.00;5086632;28;20055;-80
2022/05/10 04:14:59;;;;;;;15.38;12.68;;;;;;;13.39;nan;100323.88;5090873;28;20024;-81
2022/05/10 04:17:24;;;;;;;15.40;13.80;;;;;;;13.39;nan;100324.72;5089793;28;20073;-80
2022/05/10 04:19:49;;;;;;;15.32;13.73;;;;;;;13.20;nan;100329.19;5089694;28;20118;-81
2022/05/10 04:22:16;;;;;;;20.42;13.70;;;;;;;13.33;nan;100330.56;5090250;28;20032;-81
2022/05/10 04:24:41;;;;;;;14.20;12.82;;;;;;;13.44;nan;100324.28;5090821;28;20032;-81
2022/05/10 04:27:07;;;;;;;15.95;12.52;;;;;;;13.55;nan;100326.75;5090843;28;20043;-81
2022/05/10 04:29:33;;;;;;;14.60;13.07;;;;;;;13.62;nan;100329.69;5084864;28;20036;-81
2022/05/10 04:31:58;;;;;;;17.02;12.70;;;;;;;13.68;nan;100326.47;5090659;28;20028;-82
2022/05/10 04:34:23;;;;;;;15.70;13.23;;;;;;;13.73;nan;100326.84;5090553;28;20391;-82
2022/05/10 04:36:49;;;;;;;21.17;13.60;;;;;;;13.78;nan;100330.75;5089307;28;20028;-80
2022/05/10 04:39:14;;;;;;;16.85;13.75;;;;;;;13.83;nan;100328.53;5090712;28;20423;-81
2022/05/10 04:41:45;;;;;;;15.50;13.90;;;;;;;13.91;nan;100336.56;5090603;28;20036;-80
2022/05/10 04:44:11;;;;;;;;;;;;;;;13.90;nan;100332.25;5091047;28;20115;-80
2022/05/10 04:46:38;;;;;;;13.52;11.88;;;;;;;13.77;nan;100338.88;5090178;28;20006;-80
2022/05/10 04:49:06;;;;;;;13.98;12.57;;;;;;;13.83;nan;100335.63;5086425;28;20032;-80
2022/05/10 04:51:32;;;;;;;13.05;11.82;;;;;;;13.86;nan;100338.00;5089687;28;20024;-81
2022/05/10 04:53:58;;;;;;;18.80;13.32;;;;;;;13.89;nan;100343.88;5090570;28;20044;-81
2022/05/10 04:56:23;;;;;;;14.32;12.63;;;;;;;13.81;nan;100356.16;5090159;28;20043;-81
2022/05/10 04:58:49;;;;;;;16.08;12.45;;;;;;;13.72;nan;100351.72;5090492;28;20024;-81
2022/05/10 05:01:16;;;;;;;12.57;11.38;;;;;;;13.73;nan;100358.69;5089943;28;20074;-82
2022/05/10 05:03:47;;;;;;;13.23;11.95;;;;;;;13.79;nan;100352.81;5090608;28;20119;-81
2022/05/10 05:06:13;;;;;;;13.15;11.23;;;;;;;13.88;nan;100357.25;5090230;28;20373;-81
2022/05/10 05:08:40;;;;;;;12.85;11.55;;;;;;;13.88;nan;100357.25;5090654;28;20028;-82
2022/05/10 05:11:06;;;;;;;15.18;12.05;;;;;;;13.87;nan;100355.59;5090614;28;20391;-81
2022/05/10 05:13:31;;;;;;;13.40;11.25;;;;;;;13.86;nan;100356.56;5089480;28;20147;-80
2022/05/10 05:15:57;;;;;;;11.93;10.90;;;;;;;13.88;nan;100351.97;4383717;28;10000438;-80
2022/05/10 05:18:22;;;;;;;13.48;12.07;;;;;;;13.92;nan;100358.63;5089687;28;20028;-79
2022/05/10 05:20:49;;;;;;;12.65;11.35;;;;;;;13.93;nan;100365.63;5090217;28;20395;-80
2022/05/10 05:23:19;;;;;;;13.07;11.57;;;;;;;13.93;nan;100360.31;5089803;28;20043;-81
2022/05/10 05:25:45;;;;;;;12.82;11.35;;;;;;;13.99;nan;100364.22;5087889;28;20059;-83
2022/05/10 05:28:11;;;;;;;12.35;11.15;;;;;;;14.02;nan;100363.94;5090666;28;20143;-79
2022/05/10 05:30:37;;;;;;;12.77;11.52;;;;;;;14.04;nan;100368.09;5094062;28;20020;-80
2022/05/10 05:33:04;;;;;;;13.75;11.20;;;;;;;14.09;nan;100375.63;5090322;28;20031;-80
2022/05/10 05:35:29;;;;;;;14.32;11.95;;;;;;;14.15;nan;100373.22;5094055;28;20028;-80
2022/05/10 05:37:55;;;;;;;13.13;11.95;;;;;;;14.22;nan;100371.66;4736381;28;10000113;-81
2022/05/10 05:40:23;;;;;;;12.93;11.63;;;;;;;14.30;nan;100363.81;5092695;28;20032;-81
2022/05/10 05:42:49;;;;;;;13.13;11.85;;;;;;;14.37;nan;100371.19;5092931;28;20092;-83
2022/05/10 05:45:17;;;;;;;13.68;12.20;;;;;;;14.43;nan;100373.28;5093218;28;20038;-80
2022/05/10 05:47:43;;;;;;;13.70;11.82;;;;;;;14.47;nan;100374.66;5092068;28;20066;-81
2022/05/10 05:50:12;;;;;;;13.82;12.43;;;;;;;14.60;nan;100375.16;5089418;28;20448;-81
2022/05/10 05:52:38;;;;;;;16.83;12.85;;;;;;;14.62;nan;100378.47;5091147;28;20122;-81
2022/05/10 05:55:04;;;;;;;13.65;11.05;;;;;;;14.75;nan;100378.97;5087391;28;20518;-81
2022/05/10 05:57:29;;;;;;;13.35;12.10;;;;;;;14.84;nan;100382.56;4385371;28;10000410;-82
2022/05/10 05:59:58;;;;;;;13.23;11.88;;;;;;;14.90;nan;100377.47;5091862;28;20141;-84
2022/05/10 06:02:25;;;;;;;17.52;12.85;;;;;;;14.99;nan;100383.69;5093322;28;20137;-82
2022/05/10 06:04:51;;;;;;;13.52;12.13;;;;;;;15.07;nan;100376.66;5093778;28;20032;-82
2022/05/10 06:07:17;;;;;;;14.52;13.13;;;;;;;15.13;nan;100378.72;5093129;28;20032;-81
2022/05/10 06:09:44;;;;;;;14.02;12.23;;;;;;;15.18;nan;100380.91;5093203;28;20107;-81
2022/05/10 06:12:11;;;;;;;17.80;13.70;;;;;;;15.24;nan;100379.47;5093346;28;20044;-81
2022/05/10 06:14:38;;;;;;;15.00;12.13;;;;;;;15.30;nan;100384.16;5093064;28;20036;-81
2022/05/10 06:17:04;;;;;;;13.43;12.07;;;;;;;15.36;nan;100379.06;5089329;28;20032;-82
2022/05/10 06:19:30;;;;;;;14.60;12.57;;;;;;;15.43;nan;100379.28;5091724;28;20032;-81
2022/05/10 06:21:56;;;;;;;14.90;12.90;;;;;;;15.42;nan;100374.97;5093175;28;20397;-81
2022/05/10 06:24:26;;;;;;;15.77;12.90;;;;;;;15.46;nan;100384.28;5092760;28;20043;-81
2022/05/10 06:26:51;;;;;;;16.70;12.45;;;;;;;15.38;nan;100382.38;5093284;28;20424;-82
2022/05/10 06:29:17;;;;;;;14.95;12.45;;;;;;;15.12;nan;100373.53;5092810;28;20124;-81
2022/05/10 06:31:47;;;;;;;15.52;12.43;;;;;;;15.22;nan;100370.78;5093002;28;20157;-81
2022/05/10 06:34:14;;;;;;;15.05;12.48;;;;;;;15.32;nan;100376.84;5092902;28;20241;-80
2022/05/10 06:36:40;;;;;;;13.55;11.82;;;;;;;15.50;nan;100375.84;5092578;28;20353;-81
2022/05/10 06:39:06;;;;;;;14.40;12.57;;;;;;;15.60;nan;100378.47;5093083;28;20078;-80
2022/05/10 06:41:32;;;;;;;14.20;11.57;;;;;;;15.69;nan;100385.50;5091469;28;20128;-80
2022/05/10 06:43:58;;;;;;;16.38;12.15;;;;;;;15.81;nan;100378.09;5092933;28;20456;-81
2022/05/10 06:46:26;;;;;;;13.40;11.98;;;;;;;15.93;nan;100377.69;5091281;28;20120;-80
2022/05/10 06:48:52;;;;;;;13.77;11.45;;;;;;;16.02;nan;100377.75;5093122;28;20494;-81
2022/05/10 06:51:21;;;;;;;13.57;11.57;;;;;;;16.09;nan;100382.25;5091114;28;20020;-80
2022/05/10 06:53:47;;;;;;;12.93;11.73;;;;;;;16.23;nan;100383.50;5092312;28;20024;-80
2022/05/10 06:56:13;;;;;;;12.15;10.73;;;;;;;16.35;nan;100392.88;5092454;28;20499;-81
2022/05/10 06:58:38;;;;;;;11.80;10.70;;;;;;;16.45;nan;100388.25;5092535;28;20056;-80
2022/05/10 07:01:10;;;;;;;14.82;12.05;;;;;;;16.52;nan;100391.97;5091861;28;20036;-81
2022/05/10 07:03:36;;;;;;;12.70;11.18;;;;;;;16.61;nan;100391.00;5088314;28;20483;-80
2022/05/10 07:06:03;;;;;;;12.40;11.23;;;;;;;16.67;nan;100393.03;5091600;28;20028;-82
2022/05/10 07:08:30;;;;;;;14.45;11.20;;;;;;;16.74;nan;100393.22;5091905;28;20032;-82
2022/05/10 07:10:55;;;;;;;12.43;11.23;;;;;;;16.75;nan;100390.41;5092187;28;20039;-82
2022/05/10 07:13:24;;;;;;;12.95;11.60;;;;;;;16.83;nan;100386.94;5091838;28;20032;-82
2022/05/10 07:15:50;;;;;;;12.68;11.38;;;;;;;16.87;nan;100398.09;5092301;28;20070;-82
2022/05/10 07:18:17;;;;;;;11.73;10.55;;;;;;;16.92;nan;100393.09;5092041;28;20024;-81
2022/05/10 07:20:43;;;;;;;12.02;10.93;;;;;;;17.00;nan;100393.13;5091995;28;20027;-82
2022/05/10 07:23:10;;;;;;;13.02;11.93;;;;;;;17.04;nan;100397.13;5090472;28;20020;-82
2022/05/10 07:25:36;;;;;;;13.13;11.80;;;;;;;17.05;nan;100396.13;5091733;28;20508;-82
2022/05/10 07:28:03;;;;;;;12.43;11.23;;;;;;;17.10;nan;100399.16;5092030;28;20062;-82
2022/05/10 07:30:30;;;;;;;12.57;11.30;;;;;;;17.14;nan;100395.16;5091507;28;20165;-82
2022/05/10 07:33:00;;;;;;;13.65;12.15;;;;;;;17.13;nan;100398.84;5092042;28;20086;-82
2022/05/10 07:38:12;;;;;;;11.98;10.80;;;;;;;17.29;nan;100388.19;5098081;28;20059;-82
2022/05/10 07:40:38;;;;;;;12.85;11.35;;;;;;;17.38;nan;100386.31;5095420;28;20032;-80
2022/05/10 07:43:12;;;;;;;11.80;10.60;;;;;;;17.45;nan;100379.34;5098325;28;20024;-82
2022/05/10 07:45:39;;;;;;;13.25;11.27;;;;;;;17.54;nan;100384.53;5095356;28;20036;-82
2022/05/10 07:48:06;;;;;;;13.25;11.25;;;;;;;17.55;nan;100388.84;5097227;28;20355;-81
2022/05/10 07:50:33;;;;;;;12.50;10.52;;;;;;;17.62;nan;100388.19;5094390;28;20028;-82
2022/05/10 07:53:06;;;;;;;11.98;10.43;;;;;;;17.73;nan;100385.22;5097174;28;20032;-82
2022/05/10 07:55:34;;;;;;;11.27;10.10;;;;;;;17.82;nan;100386.84;5094916;28;20039;-81
2022/05/10 07:58:00;;;;;;;12.48;10.18;;;;;;;17.89;nan;100387.84;5095535;28;20021;-81
2022/05/10 08:00:25;;;;;;;12.07;10.88;;;;;;;17.87;nan;100395.19;5095292;28;20474;-81
2022/05/10 08:02:52;;;;;;;11.73;10.73;;;;;;;17.94;nan;100388.16;5093387;28;20042;-79
2022/05/10 08:05:21;;;;;;;13.35;11.70;;;;;;;18.01;nan;100389.16;5094134;28;20028;-74
2022/05/10 08:07:47;;;;;;;13.82;10.73;;;;;;;18.10;nan;100395.31;5094689;28;20028;-73
2022/05/10 08:10:14;;;;;;;12.75;10.63;;;;;;;18.15;nan;100392.94;5091637;28;20080;-73
2022/05/10 08:12:39;;;;;;;12.15;10.63;;;;;;;18.18;nan;100396.13;5094393;28;20039;-72
2022/05/10 08:15:08;;;;;;;14.90;11.77;;;;;;;18.21;nan;100385.09;5097232;28;20042;-72
2022/05/10 08:17:34;;;;;;;12.63;10.45;;;;;;;18.26;nan;100392.59;5092544;28;20824;-73
2022/05/10 08:19:59;;;;;;;12.52;11.23;;;;;;;18.33;nan;100388.22;5078256;28;20066;-73
2022/05/10 08:22:25;;;;;;;12.32;11.20;;;;;;;18.39;nan;100388.38;5094992;28;20042;-73
2022/05/10 08:24:50;;;;;;;12.52;11.40;;;;;;;18.47;nan;100384.00;5092609;28;20395;-73
2022/05/10 08:27:15;;;;;;;12.55;11.45;;;;;;;18.52;nan;100381.63;5093650;28;20025;-71
2022/05/10 08:29:42;;;;;;;13.15;11.55;;;;;;;18.57;nan;100387.31;5094264;28;20046;-73
2022/05/10 08:32:08;;;;;;;15.90;12.88;;;;;;;18.61;nan;100392.16;5096821;28;20036;-73
2022/05/10 08:34:35;;;;;;;14.45;12.40;;;;;;;18.66;nan;100384.44;5093429;28;20058;-74
2022/05/10 08:37:05;;;;;;;13.77;11.68;;;;;;;18.73;nan;100385.41;5094013;28;20036;-75
2022/05/10 08:39:31;;;;;;;14.40;11.85;;;;;;;18.76;nan;100384.22;5094140;28;20036;-73
2022/05/10 08:41:59;;;;;;;12.85;11.15;;;;;;;18.81;nan;100387.19;5093972;28;20476;-75
2022/05/10 08:44:28;;;;;;;12.25;10.93;;;;;;;18.86;nan;100384.81;5090152;28;20051;-73
2022/05/10 08:47:03;;;;;;;12.95;11.20;;;;;;;18.93;nan;100385.78;5091045;28;20073;-75
2022/05/10 08:49:34;;;;;;;13.18;10.98;;;;;;;18.98;nan;100378.06;5090381;28;20065;-75
2022/05/10 08:52:00;;;;;;;12.50;11.40;;;;;;;19.03;nan;100383.72;5090325;28;20098;-74
2022/05/10 08:54:29;;;;;;;13.30;11.65;;;;;;;19.06;nan;100380.69;5090540;28;20396;-74
2022/05/10 08:56:57;;;;;;;11.20;10.10;;;;;;;19.12;nan;100377.31;5093208;28;20090;-74
2022/05/10 08:59:39;;;;;;;12.88;11.40;;;;;;;19.19;nan;100375.59;5088502;28;20032;-75
2022/05/10 09:02:13;;;;;;;13.10;11.15;;;;;;;19.26;nan;100369.53;5085471;28;20119;-75
2022/05/10 09:04:59;;;;;;;12.60;11.38;;;;;;;19.34;nan;100372.13;5089447;28;20024;-75
2022/05/10 09:07:31;;;;;;;10.90;9.82;;;;;;;19.37;nan;100363.75;5097481;28;20386;-74
2022/05/10 09:10:02;;;;;;;15.32;11.40;;;;;;;19.39;nan;100364.38;5096527;28;20028;-74
2022/05/10 09:12:31;;;;;;;10.23;9.23;;;;;;;19.44;nan;100356.69;5094959;28;20032;-74
2022/05/10 09:15:01;;;;;;;13.02;11.82;;;;;;;19.49;nan;100360.50;5094245;28;20032;-74
2022/05/10 09:17:30;;;;;;;10.70;9.70;;;;;;;19.52;nan;100359.31;5094226;28;20468;-74
2022/05/10 09:19:56;;;;;;;15.13;11.20;;;;;;;19.57;nan;100362.25;5093552;28;20044;-75
2022/05/10 09:22:33;;;;;;;13.10;9.70;;;;;;;19.59;nan;100360.25;5096150;28;20020;-73
2022/05/10 09:24:58;;;;;;;9.88;8.88;;;;;;;19.64;nan;100363.22;5098507;28;20044;-75
2022/05/10 09:27:34;;;;;;;10.07;9.13;;;;;;;19.68;nan;100358.31;5101020;28;20062;-73
2022/05/10 09:30:00;;;;;;;11.60;10.43;;;;;;;19.72;nan;100360.47;5102911;27;20072;-73
2022/05/10 09:35:28;;;;;;;11.45;10.30;;;;;;;19.81;nan;100348.66;5091475;28;20119;-74
2022/05/10 09:38:02;;;;;;;11.07;9.95;;;;;;;19.95;nan;100349.69;5098214;28;20036;-76
2022/05/10 09:40:41;;;;;;;9.75;8.85;;;;;;;19.98;nan;100334.06;5094043;28;20438;-77
2022/05/10 09:43:22;;;;;;;14.00;11.55;;;;;;;20.07;nan;100336.66;5090287;28;20495;-77
2022/05/10 09:46:24;;;;;;;9.93;8.95;;;;;;;20.12;nan;100340.44;5091609;28;20116;-77
2022/05/10 09:48:49;;;;;;;9.63;8.60;;;;;;;20.11;nan;100332.59;5088835;28;20063;-77
2022/05/10 09:51:17;;;;;;;10.85;8.80;;;;;;;20.24;nan;100338.13;5091408;28;20707;-77
2022/05/10 09:53:43;;;;;;;10.88;9.05;;;;;;;20.24;nan;100338.97;5091716;28;20036;-77
2022/05/10 09:56:29;;;;;;;8.02;7.32;;;;;;;20.22;nan;100334.78;5094098;28;20102;-76
2022/05/10 09:59:02;;;;;;;10.85;7.65;;;;;;;20.37;nan;100332.97;5095138;28;20112;-75
2022/05/10 10:01:36;;;;;;;11.93;7.55;;;;;;;20.41;nan;100331.56;5121494;27;20036;-75
2022/05/10 10:04:33;;;;;;;8.93;8.05;;;;;;;20.52;nan;100330.25;5098582;28;20036;-75
2022/05/10 10:07:09;;;;;;;12.25;8.65;;;;;;;20.50;nan;100330.44;5085206;28;20055;-75
2022/05/10 10:09:38;;;;;;;8.60;7.70;;;;;;;20.57;nan;100328.66;5098021;28;20353;-76
2022/05/10 10:12:39;;;;;;;7.60;6.73;;;;;;;20.63;nan;100327.91;5095102;28;20071;-76
2022/05/10 10:15:24;;;;;;;8.35;7.47;;;;;;;20.68;nan;100325.50;5075005;28;20055;-77
2022/05/10 10:18:11;;;;;;;7.72;6.70;;;;;;;20.83;nan;100317.41;5089862;28;20484;-77
2022/05/10 10:20:57;;;;;;;9.02;7.97;;;;;;;20.88;nan;100319.50;5093139;28;20028;-76
2022/05/10 10:23:41;;;;;;;8.93;7.25;;;;;;;20.82;nan;100321.94;5097883;28;20054;-76
2022/05/10 10:26:15;;;;;;;7.25;6.50;;;;;;;20.81;nan;100314.91;5095103;28;20020;-75
2022/05/10 10:29:24;;;;;;;6.45;5.72;;;;;;;20.76;nan;100317.34;5094776;28;20052;-76
2022/05/10 10:31:54;;;;;;;11.50;7.80;;;;;;;20.83;nan;100312.88;5058935;28;20044;-76
2022/05/10 10:34:26;;;;;;;8.35;6.80;;;;;;;20.85;nan;100305.44;5093906;28;20039;-77
2022/05/10 10:37:14;;;;;;;6.60;6.15;;;;;;;20.95;nan;100309.69;5096779;28;20490;-77
2022/05/10 10:39:56;;;;;;;10.73;6.13;;;;;;;20.99;nan;100294.84;5097294;28;20036;-77
2022/05/10 10:42:48;;;;;;;8.02;6.15;;;;;;;21.00;nan;100296.53;5091040;28;20173;-77
2022/05/10 10:45:17;;;;;;;7.68;6.03;;;;;;;20.96;nan;100289.88;5094102;28;20039;-77
2022/05/10 10:48:03;;;;;;;7.50;6.80;;;;;;;21.00;nan;100288.47;5098142;28;20035;-74
2022/05/10 10:50:35;;;;;;;9.25;5.93;;;;;;;21.06;nan;100287.69;5096631;28;20036;-76
2022/05/10 10:53:03;;;;;;;8.55;6.30;;;;;;;21.07;nan;100276.78;5096994;28;20040;-77
2022/05/10 10:55:43;;;;;;;9.10;7.10;;;;;;;21.17;nan;100288.03;5096617;28;20102;-76
2022/05/10 10:58:13;;;;;;;6.95;6.25;;;;;;;21.23;nan;100281.06;5097996;28;20028;-75
2022/05/10 11:00:54;;;;;;;6.87;6.17;;;;;;;21.26;nan;100277.19;5093360;28;20464;-76
2022/05/10 11:03:47;;;;;;;10.48;5.47;;;;;;;21.33;nan;100278.88;5090861;28;20039;-76
2022/05/10 11:06:24;;;;;;;8.32;5.70;;;;;;;21.30;nan;100273.91;5065255;28;20036;-80
2022/05/10 11:08:59;;;;;;;8.07;5.88;;;;;;;21.29;nan;100274.94;5092531;28;20504;-80
2022/05/10 11:11:30;;;;;;;8.93;7.10;;;;;;;21.28;nan;100267.06;5091862;28;20044;-79
2022/05/10 11:14:16;;;;;;;7.40;6.07;;;;;;;21.23;nan;100265.81;5093594;28;20518;-80
2022/05/10 11:16:56;;;;;;;6.78;6.07;;;;;;;21.44;nan;100264.91;5092510;28;20032;-80
2022/05/10 11:19:40;;;;;;;8.23;6.63;;;;;;;21.58;nan;100263.97;5095524;28;20388;-80
2022/05/10 11:22:18;;;;;;;8.63;7.00;;;;;;;21.60;nan;100261.94;5090862;28;20032;-80
2022/05/10 11:25:03;;;;;;;10.65;7.45;;;;;;;21.67;nan;100255.78;5118938;27;20050;-80
2022/05/10 11:27:44;;;;;;;7.85;7.00;;;;;;;21.77;nan;100256.25;5095651;28;20029;-82
2022/05/10 11:30:24;;;;;;;7.65;6.80;;;;;;;21.68;nan;100246.72;5092408;28;20047;-81
2022/05/10 11:32:49;;;;;;;;;;;;;;;21.65;nan;100238.00;5095226;28;20092;-82
2022/05/10 11:35:19;;;;;;;9.02;6.32;;;;;;;21.90;nan;100240.19;5091185;28;20018;-82
2022/05/10 11:38:03;;;;;;;7.70;6.20;;;;;;;21.95;nan;100232.41;5091640;28;20415;-82
2022/05/10 11:41:03;;;;;;;5.95;5.40;;;;;;;22.07;nan;100230.81;5091229;28;20043;-82
2022/05/10 11:43:51;;;;;;;8.23;6.25;;;;;;;22.19;nan;100231.88;5090360;28;20127;-82
2022/05/10 11:46:32;;;;;;;7.60;6.80;;;;;;;22.25;nan;100228.38;5089889;28;20036;-83
2022/05/10 11:49:12;;;;;;;8.02;6.10;;;;;;;22.28;nan;100222.59;5091427;28;20036;-81
2022/05/10 11:52:11;;;;;;;10.85;6.90;;;;;;;22.35;nan;100222.63;5088764;28;20032;-80
2022/05/10 11:54:47;;;;;;;6.65;6.13;;;;;;;22.49;nan;100212.72;5088879;28;20422;-81